sensor_id;sensor_type;location;lat;lon;timestamp;pressure;altitude;pressure_sealevel;temperature;humidity
65666;BME280;52365;47.464;18.976;2024-03-08T00:00:02;100137.22;;;6.29;79.23
65666;BME280;52365;47.464;18.976;2024-03-08T00:00:33;100133.59;;;6.19;79.38
65666;BME280;52365;47.464;18.976;2024-03-08T00:00:54;100130.78;;;6.07;79.55
65666;BME280;52365;47.464;18.976;2024-03-08T00:01:15;100128.50;;;6.05;79.91
65666;BME280;52365;47.464;18.976;2024-03-08T00:01:37;100131.50;;;6.27;79.79
65666;BME280;52365;47.464;18.976;2024-03-08T00:01:58;100133.72;;;6.12;79.86
65666;BME280;52365;47.464;18.976;2024-03-08T00:02:18;100122.88;;;5.79;80.20
65666;BME280;52365;47.464;18.976;2024-03-08T00:02:41;100125.56;;;5.79;80.44
65666;BME280;52365;47.464;18.976;2024-03-08T00:03:02;100129.03;;;5.76;80.58
65666;BME280;52365;47.464;18.976;2024-03-08T00:03:23;100131.34;;;5.74;80.85
65666;BME280;52365;47.464;18.976;2024-03-08T00:03:44;100131.72;;;5.76;81.02
65666;BME280;52365;47.464;18.976;2024-03-08T00:04:05;100134.12;;;5.91;80.91
65666;BME280;52365;47.464;18.976;2024-03-08T00:04:27;100123.75;;;5.73;81.04
65666;BME280;52365;47.464;18.976;2024-03-08T00:04:47;100124.50;;;5.73;81.26
65666;BME280;52365;47.464;18.976;2024-03-08T00:05:09;100130.44;;;5.85;81.28
65666;BME280;52365;47.464;18.976;2024-03-08T00:05:30;100126.69;;;6.02;81.06
65666;BME280;52365;47.464;18.976;2024-03-08T00:05:51;100128.94;;;6.03;81.10
65666;BME280;52365;47.464;18.976;2024-03-08T00:06:11;100126.25;;;6.03;80.79
65666;BME280;52365;47.464;18.976;2024-03-08T00:06:32;100129.69;;;5.84;80.99
65666;BME280;52365;47.464;18.976;2024-03-08T00:06:53;100125.69;;;5.72;81.02
65666;BME280;52365;47.464;18.976;2024-03-08T00:07:14;100126.62;;;5.82;81.14
65666;BME280;52365;47.464;18.976;2024-03-08T00:07:36;100129.25;;;5.86;81.19
65666;BME280;52365;47.464;18.976;2024-03-08T00:07:56;100120.75;;;5.91;81.12
65666;BME280;52365;47.464;18.976;2024-03-08T00:08:17;100121.47;;;5.95;81.00
65666;BME280;52365;47.464;18.976;2024-03-08T00:08:38;100122.53;;;6.17;80.86
65666;BME280;52365;47.464;18.976;2024-03-08T00:08:59;100123.44;;;6.11;80.43
65666;BME280;52365;47.464;18.976;2024-03-08T00:09:20;100119.88;;;5.97;80.62
65666;BME280;52365;47.464;18.976;2024-03-08T00:09:42;100128.69;;;6.14;80.56
65666;BME280;52365;47.464;18.976;2024-03-08T00:10:07;100122.41;;;5.85;80.70
65666;BME280;52365;47.464;18.976;2024-03-08T00:10:31;100120.22;;;5.79;80.92
65666;BME280;52365;47.464;18.976;2024-03-08T00:10:52;100130.06;;;5.63;81.25
65666;BME280;52365;47.464;18.976;2024-03-08T00:11:13;100124.41;;;5.57;81.55
65666;BME280;52365;47.464;18.976;2024-03-08T00:11:34;100130.25;;;5.52;81.95
65666;BME280;52365;47.464;18.976;2024-03-08T00:11:55;100126.97;;;5.64;81.95
65666;BME280;52365;47.464;18.976;2024-03-08T00:12:16;100117.72;;;5.69;82.18
65666;BME280;52365;47.464;18.976;2024-03-08T00:12:38;100114.59;;;5.94;82.01
65666;BME280;52365;47.464;18.976;2024-03-08T00:12:59;100125.06;;;6.24;81.54
65666;BME280;52365;47.464;18.976;2024-03-08T00:13:20;100123.91;;;6.25;81.09
65666;BME280;52365;47.464;18.976;2024-03-08T00:13:41;100125.00;;;6.28;80.74
65666;BME280;52365;47.464;18.976;2024-03-08T00:14:02;100125.09;;;6.41;80.47
65666;BME280;52365;47.464;18.976;2024-03-08T00:14:27;100127.00;;;6.40;80.03
65666;BME280;52365;47.464;18.976;2024-03-08T00:14:48;100125.25;;;6.34;79.98
65666;BME280;52365;47.464;18.976;2024-03-08T00:15:12;100132.41;;;6.20;79.89
65666;BME280;52365;47.464;18.976;2024-03-08T00:15:34;100128.37;;;6.12;80.07
65666;BME280;52365;47.464;18.976;2024-03-08T00:15:55;100124.13;;;5.95;80.33
65666;BME280;52365;47.464;18.976;2024-03-08T00:16:18;100123.50;;;5.67;80.61
65666;BME280;52365;47.464;18.976;2024-03-08T00:16:40;100121.34;;;5.78;80.66
65666;BME280;52365;47.464;18.976;2024-03-08T00:17:04;100132.75;;;5.82;80.64
65666;BME280;52365;47.464;18.976;2024-03-08T00:17:25;100126.44;;;5.73;80.90
65666;BME280;52365;47.464;18.976;2024-03-08T00:17:46;100128.34;;;5.72;81.06
65666;BME280;52365;47.464;18.976;2024-03-08T00:18:07;100126.00;;;5.98;81.15
65666;BME280;52365;47.464;18.976;2024-03-08T00:18:23;100131.94;;;6.25;80.68
65666;BME280;52365;47.464;18.976;2024-03-08T00:18:44;100131.94;;;6.25;80.20
65666;BME280;52365;47.464;18.976;2024-03-08T00:19:05;100135.03;;;6.24;80.10
65666;BME280;52365;47.464;18.976;2024-03-08T00:19:26;100130.56;;;6.17;80.09
65666;BME280;52365;47.464;18.976;2024-03-08T00:19:47;100134.09;;;5.94;80.19
65666;BME280;52365;47.464;18.976;2024-03-08T00:20:08;100122.72;;;5.87;80.46
65666;BME280;52365;47.464;18.976;2024-03-08T00:20:32;100125.50;;;6.03;80.39
65666;BME280;52365;47.464;18.976;2024-03-08T00:20:52;100123.91;;;6.05;80.25
65666;BME280;52365;47.464;18.976;2024-03-08T00:21:13;100131.38;;;6.14;80.15
65666;BME280;52365;47.464;18.976;2024-03-08T00:21:36;100128.44;;;6.09;80.30
65666;BME280;52365;47.464;18.976;2024-03-08T00:21:57;100125.44;;;6.07;80.57
65666;BME280;52365;47.464;18.976;2024-03-08T00:22:17;100126.38;;;5.96;80.49
65666;BME280;52365;47.464;18.976;2024-03-08T00:22:38;100127.38;;;5.82;80.86
65666;BME280;52365;47.464;18.976;2024-03-08T00:22:59;100119.59;;;5.92;80.93
65666;BME280;52365;47.464;18.976;2024-03-08T00:23:20;100124.81;;;5.99;80.68
65666;BME280;52365;47.464;18.976;2024-03-08T00:23:41;100117.97;;;5.98;80.55
65666;BME280;52365;47.464;18.976;2024-03-08T00:24:02;100122.56;;;5.97;80.61
65666;BME280;52365;47.464;18.976;2024-03-08T00:24:18;100127.63;;;6.12;80.48
65666;BME280;52365;47.464;18.976;2024-03-08T00:24:39;100124.03;;;6.18;80.37
65666;BME280;52365;47.464;18.976;2024-03-08T00:25:00;100127.69;;;6.08;80.32
65666;BME280;52365;47.464;18.976;2024-03-08T00:25:22;100122.03;;;5.82;80.60
65666;BME280;52365;47.464;18.976;2024-03-08T00:25:44;100119.25;;;5.90;80.62
65666;BME280;52365;47.464;18.976;2024-03-08T00:26:04;100127.66;;;5.68;80.69
65666;BME280;52365;47.464;18.976;2024-03-08T00:26:26;100118.13;;;5.67;80.95
65666;BME280;52365;47.464;18.976;2024-03-08T00:26:46;100123.25;;;6.01;80.83
65666;BME280;52365;47.464;18.976;2024-03-08T00:27:07;100120.00;;;5.90;80.91
65666;BME280;52365;47.464;18.976;2024-03-08T00:27:29;100128.63;;;6.18;80.68
65666;BME280;52365;47.464;18.976;2024-03-08T00:27:54;100124.87;;;6.15;80.42
65666;BME280;52365;47.464;18.976;2024-03-08T00:28:18;100117.97;;;5.98;80.38
65666;BME280;52365;47.464;18.976;2024-03-08T00:28:39;100126.13;;;6.11;80.44
65666;BME280;52365;47.464;18.976;2024-03-08T00:29:00;100131.63;;;6.40;80.14
65666;BME280;52365;47.464;18.976;2024-03-08T00:29:21;100131.97;;;6.42;79.53
65666;BME280;52365;47.464;18.976;2024-03-08T00:29:42;100119.19;;;6.13;79.50
65666;BME280;52365;47.464;18.976;2024-03-08T00:30:04;100125.81;;;5.85;79.87
65666;BME280;52365;47.464;18.976;2024-03-08T00:30:26;100115.63;;;5.80;79.97
65666;BME280;52365;47.464;18.976;2024-03-08T00:30:47;100121.22;;;5.86;80.10
65666;BME280;52365;47.464;18.976;2024-03-08T00:31:08;100121.91;;;5.90;80.28
65666;BME280;52365;47.464;18.976;2024-03-08T00:31:29;100119.09;;;5.77;80.35
65666;BME280;52365;47.464;18.976;2024-03-08T00:31:52;100125.41;;;5.87;80.51
65666;BME280;52365;47.464;18.976;2024-03-08T00:32:13;100124.72;;;6.22;80.34
65666;BME280;52365;47.464;18.976;2024-03-08T00:32:34;100128.44;;;6.28;79.92
65666;BME280;52365;47.464;18.976;2024-03-08T00:32:55;100126.81;;;6.15;79.76
65666;BME280;52365;47.464;18.976;2024-03-08T00:33:16;100124.72;;;6.22;79.68
65666;BME280;52365;47.464;18.976;2024-03-08T00:33:37;100122.09;;;6.19;79.63
65666;BME280;52365;47.464;18.976;2024-03-08T00:33:57;100122.41;;;6.04;79.71
65666;BME280;52365;47.464;18.976;2024-03-08T00:34:18;100120.41;;;5.89;80.03
65666;BME280;52365;47.464;18.976;2024-03-08T00:34:39;100123.53;;;5.84;80.47
65666;BME280;52365;47.464;18.976;2024-03-08T00:35:00;100114.59;;;5.94;80.57
65666;BME280;52365;47.464;18.976;2024-03-08T00:35:22;100124.00;;;6.02;80.56
65666;BME280;52365;47.464;18.976;2024-03-08T00:35:43;100124.94;;;6.12;80.30
65666;BME280;52365;47.464;18.976;2024-03-08T00:36:04;100127.56;;;6.15;80.34
65666;BME280;52365;47.464;18.976;2024-03-08T00:36:25;100121.03;;;6.16;80.13
65666;BME280;52365;47.464;18.976;2024-03-08T00:36:47;100115.28;;;5.98;80.12
65666;BME280;52365;47.464;18.976;2024-03-08T00:37:08;100116.72;;;6.02;80.30
65666;BME280;52365;47.464;18.976;2024-03-08T00:37:24;100125.06;;;6.24;80.08
65666;BME280;52365;47.464;18.976;2024-03-08T00:37:45;100121.94;;;6.46;79.76
65666;BME280;52365;47.464;18.976;2024-03-08T00:38:07;100121.84;;;6.33;79.43
65666;BME280;52365;47.464;18.976;2024-03-08T00:38:28;100123.41;;;6.30;79.42
65666;BME280;52365;47.464;18.976;2024-03-08T00:38:49;100113.50;;;6.11;79.44
65666;BME280;52365;47.464;18.976;2024-03-08T00:39:10;100123.34;;;6.14;79.78
65666;BME280;52365;47.464;18.976;2024-03-08T00:39:32;100125.22;;;6.17;79.65
65666;BME280;52365;47.464;18.976;2024-03-08T00:39:53;100116.00;;;6.18;79.83
65666;BME280;52365;47.464;18.976;2024-03-08T00:40:14;100125.63;;;6.16;79.72
65666;BME280;52365;47.464;18.976;2024-03-08T00:40:35;100125.22;;;6.17;79.79
65666;BME280;52365;47.464;18.976;2024-03-08T00:40:56;100118.22;;;6.23;79.75
65666;BME280;52365;47.464;18.976;2024-03-08T00:41:17;100125.25;;;6.34;79.49
65666;BME280;52365;47.464;18.976;2024-03-08T00:41:39;100121.91;;;6.29;79.14
65666;BME280;52365;47.464;18.976;2024-03-08T00:42:00;100119.09;;;5.77;79.75
65666;BME280;52365;47.464;18.976;2024-03-08T00:42:21;100122.03;;;5.63;80.17
65666;BME280;52365;47.464;18.976;2024-03-08T00:42:42;100119.97;;;5.70;80.58
65666;BME280;52365;47.464;18.976;2024-03-08T00:43:04;100120.12;;;5.83;80.58
65666;BME280;52365;47.464;18.976;2024-03-08T00:43:25;100115.25;;;5.78;80.84
65666;BME280;52365;47.464;18.976;2024-03-08T00:43:46;100119.59;;;5.92;80.64
65666;BME280;52365;47.464;18.976;2024-03-08T00:44:08;100114.38;;;5.85;80.90
65666;BME280;52365;47.464;18.976;2024-03-08T00:44:30;100109.72;;;5.89;80.82
65666;BME280;52365;47.464;18.976;2024-03-08T00:44:52;100119.25;;;6.10;80.76
65666;BME280;52365;47.464;18.976;2024-03-08T00:45:13;100122.78;;;6.23;80.56
65666;BME280;52365;47.464;18.976;2024-03-08T00:45:34;100120.91;;;6.23;80.35
65666;BME280;52365;47.464;18.976;2024-03-08T00:45:55;100127.31;;;6.26;80.13
65666;BME280;52365;47.464;18.976;2024-03-08T00:46:16;100110.88;;;6.08;80.03
65666;BME280;52365;47.464;18.976;2024-03-08T00:46:38;100114.09;;;5.79;80.23
65666;BME280;52365;47.464;18.976;2024-03-08T00:46:58;100115.31;;;5.74;80.53
65666;BME280;52365;47.464;18.976;2024-03-08T00:47:19;100115.41;;;5.71;80.80
65666;BME280;52365;47.464;18.976;2024-03-08T00:47:40;100118.34;;;5.76;81.00
65666;BME280;52365;47.464;18.976;2024-03-08T00:48:04;100118.13;;;5.87;81.07
65666;BME280;52365;47.464;18.976;2024-03-08T00:48:26;100110.84;;;5.88;80.99
65666;BME280;52365;47.464;18.976;2024-03-08T00:48:47;100115.69;;;5.96;80.90
65666;BME280;52365;47.464;18.976;2024-03-08T00:49:08;100114.44;;;6.21;80.67
65666;BME280;52365;47.464;18.976;2024-03-08T00:49:30;100119.72;;;6.24;80.27
65666;BME280;52365;47.464;18.976;2024-03-08T00:49:51;100118.22;;;6.23;80.05
65666;BME280;52365;47.464;18.976;2024-03-08T00:50:12;100114.81;;;6.39;79.80
65666;BME280;52365;47.464;18.976;2024-03-08T00:50:33;100118.53;;;6.25;79.71
65666;BME280;52365;47.464;18.976;2024-03-08T00:50:54;100118.97;;;6.24;79.67
65666;BME280;52365;47.464;18.976;2024-03-08T00:51:15;100118.47;;;6.29;79.71
65666;BME280;52365;47.464;18.976;2024-03-08T00:51:36;100123.19;;;6.41;79.56
65666;BME280;52365;47.464;18.976;2024-03-08T00:51:57;100120.44;;;6.61;79.20
65666;BME280;52365;47.464;18.976;2024-03-08T00:52:18;100119.78;;;6.73;78.81
65666;BME280;52365;47.464;18.976;2024-03-08T00:52:39;100115.84;;;6.62;78.54
65666;BME280;52365;47.464;18.976;2024-03-08T00:53:01;100114.00;;;6.42;78.50
65666;BME280;52365;47.464;18.976;2024-03-08T00:53:22;100118.09;;;6.47;78.59
65666;BME280;52365;47.464;18.976;2024-03-08T00:53:43;100119.41;;;6.39;78.53
65666;BME280;52365;47.464;18.976;2024-03-08T00:54:04;100119.94;;;6.14;78.99
65666;BME280;52365;47.464;18.976;2024-03-08T00:54:25;100117.53;;;5.99;79.49
65666;BME280;52365;47.464;18.976;2024-03-08T00:54:46;100116.44;;;5.97;79.79
65666;BME280;52365;47.464;18.976;2024-03-08T00:55:07;100113.81;;;6.13;79.99
65666;BME280;52365;47.464;18.976;2024-03-08T00:55:31;100123.97;;;6.22;80.00
65666;BME280;52365;47.464;18.976;2024-03-08T00:55:52;100118.06;;;6.30;79.79
65666;BME280;52365;47.464;18.976;2024-03-08T00:56:13;100117.16;;;6.53;79.49
65666;BME280;52365;47.464;18.976;2024-03-08T00:56:34;100119.88;;;6.70;79.05
65666;BME280;52365;47.464;18.976;2024-03-08T00:56:56;100116.53;;;6.82;78.60
65666;BME280;52365;47.464;18.976;2024-03-08T00:57:17;100117.22;;;6.86;78.16
65666;BME280;52365;47.464;18.976;2024-03-08T00:57:37;100112.75;;;6.96;77.87
65666;BME280;52365;47.464;18.976;2024-03-08T00:57:59;100112.25;;;7.01;77.50
65666;BME280;52365;47.464;18.976;2024-03-08T00:58:20;100117.88;;;6.90;77.43
65666;BME280;52365;47.464;18.976;2024-03-08T00:58:41;100114.75;;;6.75;77.37
65666;BME280;52365;47.464;18.976;2024-03-08T00:59:03;100122.44;;;6.57;77.68
65666;BME280;52365;47.464;18.976;2024-03-08T00:59:23;100111.72;;;6.41;78.07
65666;BME280;52365;47.464;18.976;2024-03-08T00:59:44;100123.41;;;6.30;78.66
65666;BME280;52365;47.464;18.976;2024-03-08T01:00:06;100115.91;;;6.42;78.83
65666;BME280;52365;47.464;18.976;2024-03-08T01:00:30;100109.97;;;6.14;79.28
65666;BME280;52365;47.464;18.976;2024-03-08T01:00:51;100101.91;;;5.98;79.69
65666;BME280;52365;47.464;18.976;2024-03-08T01:01:15;100110.34;;;5.96;80.03
65666;BME280;52365;47.464;18.976;2024-03-08T01:01:39;100109.84;;;5.81;80.48
65666;BME280;52365;47.464;18.976;2024-03-08T01:02:01;100113.12;;;6.09;80.62
65666;BME280;52365;47.464;18.976;2024-03-08T01:02:22;100117.31;;;6.10;80.55
65666;BME280;52365;47.464;18.976;2024-03-08T01:02:43;100117.53;;;6.55;80.37
65666;BME280;52365;47.464;18.976;2024-03-08T01:03:05;100112.09;;;6.59;79.83
65666;BME280;52365;47.464;18.976;2024-03-08T01:03:26;100116.97;;;6.80;79.43
65666;BME280;52365;47.464;18.976;2024-03-08T01:03:47;100107.84;;;6.94;78.79
65666;BME280;52365;47.464;18.976;2024-03-08T01:04:10;100116.09;;;6.84;78.40
65666;BME280;52365;47.464;18.976;2024-03-08T01:04:30;100111.75;;;6.73;78.18
65666;BME280;52365;47.464;18.976;2024-03-08T01:04:52;100112.91;;;6.56;78.07
65666;BME280;52365;47.464;18.976;2024-03-08T01:05:13;100106.53;;;6.34;78.57
65666;BME280;52365;47.464;18.976;2024-03-08T01:05:34;100107.84;;;6.25;78.92
65666;BME280;52365;47.464;18.976;2024-03-08T01:05:55;100111.06;;;6.37;79.19
65666;BME280;52365;47.464;18.976;2024-03-08T01:06:16;100100.44;;;6.13;79.24
65666;BME280;52365;47.464;18.976;2024-03-08T01:06:32;100097.72;;;5.97;79.77
65666;BME280;52365;47.464;18.976;2024-03-08T01:06:49;100110.66;;;6.18;79.77
65666;BME280;52365;47.464;18.976;2024-03-08T01:07:10;100109.09;;;6.01;79.86
65666;BME280;52365;47.464;18.976;2024-03-08T01:07:31;100112.56;;;6.01;79.99
65666;BME280;52365;47.464;18.976;2024-03-08T01:07:52;100108.00;;;5.98;80.40
65666;BME280;52365;47.464;18.976;2024-03-08T01:08:13;100105.50;;;6.27;80.27
65666;BME280;52365;47.464;18.976;2024-03-08T01:08:33;100109.88;;;6.54;79.83
65666;BME280;52365;47.464;18.976;2024-03-08T01:08:54;100108.37;;;6.53;79.46
65666;BME280;52365;47.464;18.976;2024-03-08T01:09:15;100111.16;;;6.66;79.06
65666;BME280;52365;47.464;18.976;2024-03-08T01:09:38;100106.28;;;6.44;78.96
65666;BME280;52365;47.464;18.976;2024-03-08T01:09:59;100111.37;;;6.39;79.05
65666;BME280;52365;47.464;18.976;2024-03-08T01:10:19;100107.78;;;6.29;79.23
65666;BME280;52365;47.464;18.976;2024-03-08T01:10:40;100107.38;;;6.47;79.13
65666;BME280;52365;47.464;18.976;2024-03-08T01:11:01;100109.81;;;6.41;79.06
65666;BME280;52365;47.464;18.976;2024-03-08T01:11:22;100110.63;;;6.38;79.08
65666;BME280;52365;47.464;18.976;2024-03-08T01:11:43;100102.66;;;6.35;79.08
65666;BME280;52365;47.464;18.976;2024-03-08T01:12:04;100101.78;;;6.41;79.16
65666;BME280;52365;47.464;18.976;2024-03-08T01:12:28;100105.94;;;6.42;79.00
65666;BME280;52365;47.464;18.976;2024-03-08T01:12:49;100108.41;;;6.17;79.42
65666;BME280;52365;47.464;18.976;2024-03-08T01:13:10;100106.78;;;6.03;79.71
65666;BME280;52365;47.464;18.976;2024-03-08T01:13:31;100101.69;;;6.09;79.74
65666;BME280;52365;47.464;18.976;2024-03-08T01:13:52;100104.22;;;5.96;79.98
65666;BME280;52365;47.464;18.976;2024-03-08T01:14:14;100105.97;;;6.22;79.90
65666;BME280;52365;47.464;18.976;2024-03-08T01:14:35;100106.72;;;6.23;79.72
65666;BME280;52365;47.464;18.976;2024-03-08T01:14:56;100107.72;;;6.49;79.56
65666;BME280;52365;47.464;18.976;2024-03-08T01:15:18;100103.62;;;6.61;79.24
65666;BME280;52365;47.464;18.976;2024-03-08T01:15:40;100107.06;;;6.61;78.76
65666;BME280;52365;47.464;18.976;2024-03-08T01:16:02;100106.72;;;6.75;78.40
65666;BME280;52365;47.464;18.976;2024-03-08T01:16:24;100108.84;;;6.68;78.20
65666;BME280;52365;47.464;18.976;2024-03-08T01:16:44;100107.91;;;6.74;78.01
65666;BME280;52365;47.464;18.976;2024-03-08T01:17:05;100097.56;;;6.40;78.26
65666;BME280;52365;47.464;18.976;2024-03-08T01:17:26;100107.81;;;6.45;78.36
65666;BME280;52365;47.464;18.976;2024-03-08T01:17:47;100100.09;;;6.47;78.54
65666;BME280;52365;47.464;18.976;2024-03-08T01:18:08;100114.91;;;6.52;78.49
65666;BME280;52365;47.464;18.976;2024-03-08T01:18:29;100109.84;;;6.74;78.44
65666;BME280;52365;47.464;18.976;2024-03-08T01:18:50;100108.09;;;6.67;78.07
65666;BME280;52365;47.464;18.976;2024-03-08T01:19:11;100110.56;;;6.58;78.23
65666;BME280;52365;47.464;18.976;2024-03-08T01:19:32;100110.50;;;6.25;78.30
65666;BME280;52365;47.464;18.976;2024-03-08T01:19:53;100107.38;;;6.11;78.74
65666;BME280;52365;47.464;18.976;2024-03-08T01:20:14;100109.44;;;6.03;79.21
65666;BME280;52365;47.464;18.976;2024-03-08T01:20:35;100108.75;;;5.99;79.54
65666;BME280;52365;47.464;18.976;2024-03-08T01:20:56;100107.03;;;5.89;79.82
65666;BME280;52365;47.464;18.976;2024-03-08T01:21:18;100111.31;;;6.06;79.96
65666;BME280;52365;47.464;18.976;2024-03-08T01:21:38;100114.63;;;6.10;79.88
65666;BME280;52365;47.464;18.976;2024-03-08T01:21:59;100106.91;;;6.32;79.78
65666;BME280;52365;47.464;18.976;2024-03-08T01:22:20;100105.31;;;6.54;79.37
65666;BME280;52365;47.464;18.976;2024-03-08T01:22:41;100114.41;;;6.57;79.02
65666;BME280;52365;47.464;18.976;2024-03-08T01:23:03;100105.84;;;6.29;79.01
65666;BME280;52365;47.464;18.976;2024-03-08T01:23:24;100109.16;;;6.17;79.11
65666;BME280;52365;47.464;18.976;2024-03-08T01:23:40;100113.62;;;6.24;79.15
65666;BME280;52365;47.464;18.976;2024-03-08T01:24:01;100109.19;;;6.34;79.00
65666;BME280;52365;47.464;18.976;2024-03-08T01:24:22;100116.97;;;6.28;79.06
65666;BME280;52365;47.464;18.976;2024-03-08T01:24:42;100112.44;;;6.25;79.21
65666;BME280;52365;47.464;18.976;2024-03-08T01:25:04;100106.56;;;6.50;79.11
65666;BME280;52365;47.464;18.976;2024-03-08T01:25:25;100114.03;;;6.59;78.77
65666;BME280;52365;47.464;18.976;2024-03-08T01:25:46;100117.91;;;6.54;78.53
65666;BME280;52365;47.464;18.976;2024-03-08T01:26:08;100120.47;;;6.25;78.69
65666;BME280;52365;47.464;18.976;2024-03-08T01:26:28;100111.94;;;6.30;78.79
65666;BME280;52365;47.464;18.976;2024-03-08T01:26:49;100110.84;;;6.27;78.80
65666;BME280;52365;47.464;18.976;2024-03-08T01:27:10;100114.06;;;6.39;78.79
65666;BME280;52365;47.464;18.976;2024-03-08T01:27:33;100116.31;;;6.40;78.87
65666;BME280;52365;47.464;18.976;2024-03-08T01:27:57;100116.69;;;6.22;78.85
65666;BME280;52365;47.464;18.976;2024-03-08T01:28:18;100113.06;;;6.13;79.13
65666;BME280;52365;47.464;18.976;2024-03-08T01:28:39;100112.25;;;6.16;79.19
65666;BME280;52365;47.464;18.976;2024-03-08T01:29:01;100115.13;;;6.25;79.15
65666;BME280;52365;47.464;18.976;2024-03-08T01:29:18;100112.94;;;6.36;79.12
65666;BME280;52365;47.464;18.976;2024-03-08T01:29:39;100113.06;;;6.13;79.25
65666;BME280;52365;47.464;18.976;2024-03-08T01:30:01;100109.66;;;5.92;79.21
65666;BME280;52365;47.464;18.976;2024-03-08T01:30:22;100113.00;;;5.76;79.57
65666;BME280;52365;47.464;18.976;2024-03-08T01:30:42;100109.94;;;5.98;79.74
65666;BME280;52365;47.464;18.976;2024-03-08T01:31:03;100114.94;;;5.96;79.89
65666;BME280;52365;47.464;18.976;2024-03-08T01:31:25;100110.44;;;5.93;80.09
65666;BME280;52365;47.464;18.976;2024-03-08T01:31:46;100111.19;;;5.93;80.21
65666;BME280;52365;47.464;18.976;2024-03-08T01:32:07;100114.00;;;6.06;80.26
65666;BME280;52365;47.464;18.976;2024-03-08T01:32:28;100115.37;;;6.30;79.97
65666;BME280;52365;47.464;18.976;2024-03-08T01:32:49;100110.94;;;6.24;79.96
65666;BME280;52365;47.464;18.976;2024-03-08T01:33:09;100108.53;;;6.10;79.86
65666;BME280;52365;47.464;18.976;2024-03-08T01:33:30;100107.09;;;6.05;80.01
65666;BME280;52365;47.464;18.976;2024-03-08T01:33:52;100121.34;;;6.18;79.99
65666;BME280;52365;47.464;18.976;2024-03-08T01:34:13;100110.06;;;6.47;79.69
65666;BME280;52365;47.464;18.976;2024-03-08T01:34:34;100116.59;;;6.46;79.27
65666;BME280;52365;47.464;18.976;2024-03-08T01:34:55;100114.47;;;6.37;79.11
65666;BME280;52365;47.464;18.976;2024-03-08T01:35:16;100113.94;;;6.26;79.24
65666;BME280;52365;47.464;18.976;2024-03-08T01:35:38;100118.06;;;6.30;79.25
65666;BME280;52365;47.464;18.976;2024-03-08T01:36:02;100113.91;;;6.46;79.23
65666;BME280;52365;47.464;18.976;2024-03-08T01:36:23;100112.63;;;6.34;79.05
65666;BME280;52365;47.464;18.976;2024-03-08T01:36:45;100109.88;;;6.38;78.97
65666;BME280;52365;47.464;18.976;2024-03-08T01:37:06;100111.81;;;6.37;78.80
65666;BME280;52365;47.464;18.976;2024-03-08T01:37:22;100106.44;;;6.37;78.91
65666;BME280;52365;47.464;18.976;2024-03-08T01:37:43;100108.09;;;6.31;78.95
65666;BME280;52365;47.464;18.976;2024-03-08T01:38:04;100106.56;;;6.50;78.76
65666;BME280;52365;47.464;18.976;2024-03-08T01:38:25;100107.06;;;6.61;78.56
65666;BME280;52365;47.464;18.976;2024-03-08T01:38:46;100105.13;;;6.62;78.27
65666;BME280;52365;47.464;18.976;2024-03-08T01:39:07;100110.81;;;6.47;78.29
65666;BME280;52365;47.464;18.976;2024-03-08T01:39:28;100118.09;;;6.47;78.18
65666;BME280;52365;47.464;18.976;2024-03-08T01:39:49;100111.50;;;6.15;78.49
65666;BME280;52365;47.464;18.976;2024-03-08T01:40:10;100116.56;;;6.29;78.59
65666;BME280;52365;47.464;18.976;2024-03-08T01:40:31;100106.53;;;6.34;78.68
65666;BME280;52365;47.464;18.976;2024-03-08T01:40:52;100112.25;;;6.16;78.74
65666;BME280;52365;47.464;18.976;2024-03-08T01:41:13;100114.63;;;6.10;78.94
65666;BME280;52365;47.464;18.976;2024-03-08T01:41:35;100112.47;;;6.05;79.22
65666;BME280;52365;47.464;18.976;2024-03-08T01:41:56;100118.41;;;6.13;79.42
65666;BME280;52365;47.464;18.976;2024-03-08T01:42:17;100106.22;;;6.12;79.40
65666;BME280;52365;47.464;18.976;2024-03-08T01:42:39;100108.09;;;5.95;79.39
65666;BME280;52365;47.464;18.976;2024-03-08T01:43:19;100102.16;;;5.84;79.46
65666;BME280;52365;47.464;18.976;2024-03-08T01:43:40;100099.81;;;5.86;79.54
65666;BME280;52365;47.464;18.976;2024-03-08T01:44:02;100108.13;;;5.71;79.52
65666;BME280;52365;47.464;18.976;2024-03-08T01:44:23;100107.50;;;5.84;79.46
65666;BME280;52365;47.464;18.976;2024-03-08T01:44:45;100106.28;;;5.68;79.51
65666;BME280;52365;47.464;18.976;2024-03-08T01:45:06;100112.69;;;5.51;79.82
65666;BME280;52365;47.464;18.976;2024-03-08T01:45:27;100110.16;;;5.44;80.05
65666;BME280;52365;47.464;18.976;2024-03-08T01:45:48;100104.81;;;5.44;80.05
65666;BME280;52365;47.464;18.976;2024-03-08T01:46:10;100105.69;;;5.37;80.12
65666;BME280;52365;47.464;18.976;2024-03-08T01:46:34;100099.81;;;5.46;80.26
65666;BME280;52365;47.464;18.976;2024-03-08T01:46:55;100104.34;;;5.49;80.31
65666;BME280;52365;47.464;18.976;2024-03-08T01:47:17;100106.59;;;5.50;80.30
65666;BME280;52365;47.464;18.976;2024-03-08T01:47:38;100106.53;;;5.54;80.31
65666;BME280;52365;47.464;18.976;2024-03-08T01:47:59;100105.53;;;5.68;80.37
65666;BME280;52365;47.464;18.976;2024-03-08T01:48:21;100103.19;;;5.70;80.18
65666;BME280;52365;47.464;18.976;2024-03-08T01:48:44;100104.34;;;5.69;80.21
65666;BME280;52365;47.464;18.976;2024-03-08T01:49:05;100104.44;;;5.85;80.04
65666;BME280;52365;47.464;18.976;2024-03-08T01:49:27;100103.38;;;5.79;80.09
65666;BME280;52365;47.464;18.976;2024-03-08T01:49:49;100106.16;;;5.75;79.92
65666;BME280;52365;47.464;18.976;2024-03-08T01:50:10;100104.38;;;5.89;79.84
65666;BME280;52365;47.464;18.976;2024-03-08T01:50:32;100105.31;;;6.18;79.54
65666;BME280;52365;47.464;18.976;2024-03-08T01:50:53;100102.16;;;6.23;79.02
65666;BME280;52365;47.464;18.976;2024-03-08T01:51:15;100112.69;;;6.30;78.55